Artisgracht — PCUI — position and weather

sailwx.info

Track history (hours):
 
Tides and Currents Weather Stations Pressure Air Temp Water Temp Dewpoint Dewpoint Depression Visibility Wind Speed Wind Dir Waves Ship Positions

Artisgracht

Last reported at 2017-Jun-28 19:00 UTC. Time now 2017-Jun-28 19:25 UTC.
Position N 52°06' E 004°16'.

Length 130 m; beam 19 m; draft 9 m.

Type: Fishing. MMSI: 244090401.

Date/timePositionNaut miles runAvg speedWind from/ knotsBaromVisibWave heightAir tempDewpointWater temp
2017-Jun-28 19:00N 52°06' E 004°16'0 0.0
2017-Jun-28 18:31N 52°06' E 004°16'0 0.0
2017-Jun-28 18:01N 52°06' E 004°16'0 0.0
2017-Jun-28 17:30N 52°06' E 004°16'0 0.5
2017-Jun-28 17:01N 52°06' E 004°16'0 0.0
2017-Jun-28 16:31N 52°06' E 004°16'0 0.1
2017-Jun-28 16:01N 52°06' E 004°16'3 5.5
2017-Jun-28 15:31N 52°04' E 004°12'2 4.0
2017-Jun-28 15:00N 52°06' E 004°14'1 0.6
2017-Jun-28 14:01N 52°05' E 004°14'1 2.0
2017-Jun-28 13:31N 52°06' E 004°15'2 3.2
2017-Jun-28 13:01N 52°05' E 004°13'1 1.5
2017-Jun-28 12:30N 52°04' E 004°13'1 1.1
2017-Jun-28 12:01N 52°05' E 004°13'1 1.7
2017-Jun-28 11:31N 52°05' E 004°14'2 3.3
2017-Jun-28 11:01N 52°04' E 004°12'1 1.4
2017-Jun-28 10:30N 52°05' E 004°13'1 1.6
2017-Jun-28 10:01N 52°05' E 004°14'1 2.5
2017-Jun-28 09:30N 52°06' E 004°15'1 1.2
2017-Jun-28 09:01N 52°06' E 004°16'0 0.0
2017-Jun-28 08:30N 52°06' E 004°16'0 0.0
2017-Jun-28 08:01N 52°06' E 004°16'0 0.0
2017-Jun-28 07:31N 52°06' E 004°16'0 0.0
2017-Jun-28 07:01N 52°06' E 004°16'0 0.0
2017-Jun-28 06:31N 52°06' E 004°16'0 0.0
2017-Jun-28 06:00N 52°06' E 004°16'0 0.0
2017-Jun-28 05:31N 52°06' E 004°16'0 0.0
2017-Jun-28 05:01N 52°06' E 004°16'0 0.0
2017-Jun-28 04:30N 52°06' E 004°16'0 0.0
2017-Jun-28 04:01N 52°06' E 004°16'0 0.0
2017-Jun-28 03:31N 52°06' E 004°16'0 0.0
2017-Jun-28 03:00N 52°06' E 004°16'0 0.0
2017-Jun-28 02:31N 52°06' E 004°16'0 0.0
2017-Jun-28 02:01N 52°06' E 004°16'0 0.0
2017-Jun-28 01:30N 52°06' E 004°16'0 0.0
2017-Jun-28 01:01N 52°06' E 004°16'0 0.0
2017-Jun-28 00:31N 52°06' E 004°16'0 0.0
2017-Jun-28 00:01N 52°06' E 004°16'0 0.0
2017-Jun-27 23:31N 52°06' E 004°16'0 0.0
2017-Jun-27 23:01N 52°06' E 004°16'0 0.0
2017-Jun-27 22:31N 52°06' E 004°16'0 0.0
2017-Jun-27 22:01N 52°06' E 004°16'0 0.0
2017-Jun-27 21:31N 52°06' E 004°16'0 0.0
2017-Jun-27 21:00N 52°06' E 004°16'0 0.0
2017-Jun-27 20:31N 52°06' E 004°16'0 0.0
2017-Jun-27 20:01N 52°06' E 004°16'0 0.0
2017-Jun-27 19:31N 52°06' E 004°16'0 0.0
2017-Jun-27 19:01N 52°06' E 004°16'1 2.3
2017-Jun-27 18:31N 52°06' E 004°14'2 3.8
2017-Jun-27 18:00N 52°04' E 004°12'1 2.5
2017-Jun-27 17:30N 52°05' E 004°14'2 3.3
2017-Jun-27 17:01N 52°04' E 004°12'2 3.6
2017-Jun-27 16:31N 52°06' E 004°13'2 3.5
2017-Jun-27 16:01N 52°06' E 004°16'0 0.2
2017-Jun-27 15:31N 52°06' E 004°16'0 0.0
2017-Jun-27 15:00N 52°06' E 004°16'0 0.0
2017-Jun-27 14:31N 52°06' E 004°16'0 0.0
2017-Jun-27 13:31N 52°06' E 004°16'0 0.0
2017-Jun-27 13:01N 52°06' E 004°16'0 0.0
2017-Jun-27 12:30N 52°06' E 004°16'0 0.0
2017-Jun-27 12:01N 52°06' E 004°16'0 0.0
2017-Jun-27 11:31N 52°06' E 004°16'0 0.0
2017-Jun-27 11:00N 52°06' E 004°16'0 0.0
2017-Jun-27 10:31N 52°06' E 004°16'0 0.0
2017-Jun-27 10:01N 52°06' E 004°16'0 0.0
2017-Jun-27 09:30N 52°06' E 004°16'0 0.0
2017-Jun-27 09:01N 52°06' E 004°16'0 0.0
2017-Jun-27 08:31N 52°06' E 004°16'0 0.0
2017-Jun-27 08:01N 52°06' E 004°16'0 0.0
2017-Jun-27 07:31N 52°06' E 004°16'0 0.0
2017-Jun-27 07:01N 52°06' E 004°16'0 0.0
2017-Jun-27 06:31N 52°06' E 004°16'0 0.0
2017-Jun-27 06:01N 52°06' E 004°16'0 0.0
2017-Jun-27 05:31N 52°06' E 004°16'0 0.0
2017-Jun-27 05:01N 52°06' E 004°16'0 0.0
2017-Jun-27 04:31N 52°06' E 004°16'0 0.0
2017-Jun-27 04:00N 52°06' E 004°16'0 0.0
2017-Jun-27 03:31N 52°06' E 004°16'0 0.0
2017-Jun-27 03:01N 52°06' E 004°16'0 0.0
2017-Jun-27 02:31N 52°06' E 004°16'0 0.0
2017-Jun-27 02:01N 52°06' E 004°16'0 0.0
2017-Jun-27 01:31N 52°06' E 004°16'0 0.0
2017-Jun-27 01:01N 52°06' E 004°16'0 0.0
2017-Jun-27 00:31N 52°06' E 004°16'0 0.0
2017-Jun-27 00:01N 52°06' E 004°16'0 0.0
2017-Jun-26 23:31N 52°06' E 004°16'0 0.0
2017-Jun-26 23:01N 52°06' E 004°16'0 0.0
2017-Jun-26 22:31N 52°06' E 004°16'0 0.0
2017-Jun-26 22:01N 52°06' E 004°16'0 0.0
2017-Jun-26 21:31N 52°06' E 004°16'0 0.0
2017-Jun-26 21:00N 52°06' E 004°16'0 0.0
2017-Jun-26 20:30N 52°06' E 004°16'0 0.0
2017-Jun-26 20:01N 52°06' E 004°16'0 0.0
2017-Jun-26 19:31N 52°06' E 004°16'0 0.0
2017-Jun-26 19:01N 52°06' E 004°16'0 0.0
2017-Jun-26 18:30N 52°06' E 004°16'0 0.0
2017-Jun-26 18:01N 52°06' E 004°16'0 0.0
2017-Jun-26 17:31N 52°06' E 004°16'0 0.0
2017-Jun-26 17:01N 52°06' E 004°16'0 0.0
2017-Jun-26 16:31N 52°06' E 004°16'0 0.0
2017-Jun-26 16:00N 52°06' E 004°16'0 0.0
2017-Jun-26 15:31N 52°06' E 004°16'0 0.0
2017-Jun-26 15:01N 52°06' E 004°16'0 0.0
2017-Jun-26 14:31N 52°06' E 004°16'0 0.0
2017-Jun-26 13:31N 52°06' E 004°16'0 0.0
2017-Jun-26 13:00N 52°06' E 004°16'0 0.0
2017-Jun-26 12:31N 52°06' E 004°16'0 0.0
2017-Jun-26 12:01N 52°06' E 004°16'0 0.0
2017-Jun-26 11:31N 52°06' E 004°16'0 0.0
2017-Jun-26 11:01N 52°06' E 004°16'0 0.0
2017-Jun-26 10:31N 52°06' E 004°16'0 0.0
2017-Jun-26 10:01N 52°06' E 004°16'0 0.0
2017-Jun-26 09:30N 52°06' E 004°16'0 0.0
2017-Jun-26 09:01N 52°06' E 004°16'0 0.0
2017-Jun-26 08:31N 52°06' E 004°16'0 0.0
2017-Jun-26 08:01N 52°06' E 004°16'0 0.0
2017-Jun-26 07:30N 52°06' E 004°16'0 0.0
2017-Jun-26 07:01N 52°06' E 004°16'0 0.0
2017-Jun-26 06:31N 52°06' E 004°16'0 0.0
2017-Jun-26 06:01N 52°06' E 004°16'0 0.0
2017-Jun-26 05:30N 52°06' E 004°16'0 0.0
2017-Jun-26 05:00N 52°06' E 004°16'0 0.0
2017-Jun-26 04:31N 52°06' E 004°16'0 0.0
2017-Jun-26 04:01N 52°06' E 004°16'0 0.0
2017-Jun-26 03:31N 52°06' E 004°16'0 0.0
2017-Jun-26 03:01N 52°06' E 004°16'0 0.0
2017-Jun-26 02:31N 52°06' E 004°16'0 0.0
2017-Jun-26 02:01N 52°06' E 004°16'0 0.0
2017-Jun-26 01:31N 52°06' E 004°16'0 0.0
2017-Jun-26 01:00N 52°06' E 004°16'0 0.0
2017-Jun-26 00:30N 52°06' E 004°16'0 0.0
2017-Jun-26 00:01N 52°06' E 004°16'0 0.0
2017-Jun-25 23:30N 52°06' E 004°16'0 0.0
2017-Jun-25 23:01N 52°06' E 004°16'0 0.0
2017-Jun-25 22:31N 52°06' E 004°16'0 0.0
2017-Jun-25 22:01N 52°06' E 004°16'0 0.0
2017-Jun-25 21:30N 52°06' E 004°16'0 0.0
2017-Jun-25 21:01N 52°06' E 004°16'0 0.0
2017-Jun-25 20:30N 52°06' E 004°16'0 0.0
2017-Jun-25 20:01N 52°06' E 004°16'0 0.0
2017-Jun-25 19:31N 52°06' E 004°16'0 0.0
2017-Jun-25 19:00N 52°06' E 004°16'0 0.0
2017-Jun-25 18:31N 52°06' E 004°16'0 0.0
2017-Jun-25 18:01N 52°06' E 004°16'0 0.0
2017-Jun-25 17:31N 52°06' E 004°16'0 0.0
2017-Jun-25 17:01N 52°06' E 004°16'0 0.0
2017-Jun-25 16:30N 52°06' E 004°16'0 0.0
2017-Jun-25 16:00N 52°06' E 004°16'0 0.0
2017-Jun-25 15:30N 52°06' E 004°16'0 0.0
2017-Jun-25 15:00N 52°06' E 004°16'0 0.0
2017-Jun-25 14:00N 52°06' E 004°16'0 0.0
2017-Jun-25 13:30N 52°06' E 004°16'0 0.0
2017-Jun-25 13:00N 52°06' E 004°16'0 0.0
2017-Jun-25 12:30N 52°06' E 004°16'0 0.0
2017-Jun-25 12:00N 52°06' E 004°16'0 0.0
2017-Jun-25 11:30N 52°06' E 004°16'0 0.0
2017-Jun-25 11:00N 52°06' E 004°16'0 0.0
2017-Jun-25 10:30N 52°06' E 004°16'0 0.0
2017-Jun-25 10:00N 52°06' E 004°16'0 0.0
2017-Jun-25 09:30N 52°06' E 004°16'0 0.0
2017-Jun-25 09:00N 52°06' E 004°16'0 0.0
2017-Jun-25 08:30N 52°06' E 004°16'0 0.0
2017-Jun-25 08:00N 52°06' E 004°16'0 0.0
2017-Jun-25 07:30N 52°06' E 004°16'0 0.0
2017-Jun-25 07:00N 52°06' E 004°16'0 0.0
2017-Jun-25 06:30N 52°06' E 004°16'0 0.0
2017-Jun-25 06:00N 52°06' E 004°16'0 0.0
2017-Jun-25 05:30N 52°06' E 004°16'0 0.0
2017-Jun-25 05:00N 52°06' E 004°16'0 0.0
2017-Jun-25 04:30N 52°06' E 004°16'0 0.0
2017-Jun-25 04:00N 52°06' E 004°16'0 0.0
2017-Jun-25 03:30N 52°06' E 004°16'0 0.0
2017-Jun-25 03:00N 52°06' E 004°16'0 0.0
2017-Jun-25 02:30N 52°06' E 004°16'0 0.0
2017-Jun-25 02:00N 52°06' E 004°16'0 0.0
2017-Jun-25 01:30N 52°06' E 004°16'0 0.0
2017-Jun-25 01:00N 52°06' E 004°16'0 0.0
2017-Jun-25 00:30N 52°06' E 004°16'0 0.0
2017-Jun-25 00:00N 52°06' E 004°16'0 0.0
2017-Jun-24 23:30N 52°06' E 004°16'0 0.0
2017-Jun-24 23:00N 52°06' E 004°16'0 0.0
2017-Jun-24 22:30N 52°06' E 004°16'0 0.0
2017-Jun-24 22:00N 52°06' E 004°16'0 0.0
2017-Jun-24 21:30N 52°06' E 004°16'0 0.0
2017-Jun-24 21:00N 52°06' E 004°16'0 0.0
2017-Jun-24 20:30N 52°06' E 004°16'0 0.0
2017-Jun-24 20:00N 52°06' E 004°16'0 0.0
2017-Jun-24 19:30N 52°06' E 004°16'0 0.0
2017-Jun-24 19:00N 52°06' E 004°16'0 0.0
2017-Jun-24 18:30N 52°06' E 004°16'0 0.0
2017-Jun-24 18:00N 52°06' E 004°16'0 0.0
2017-Jun-24 17:30N 52°06' E 004°16'0 0.0
2017-Jun-24 17:00N 52°06' E 004°16'0 0.0
2017-Jun-24 16:30N 52°06' E 004°16'0 0.0
2017-Jun-24 16:00N 52°06' E 004°16'0 0.0
2017-Jun-24 15:30N 52°06' E 004°16'0 0.0
2017-Jun-24 15:00N 52°06' E 004°16'0 0.0
2017-Jun-24 14:00N 52°06' E 004°16'0 0.0
2017-Jun-24 13:30N 52°06' E 004°16'0 0.0
2017-Jun-24 13:00N 52°06' E 004°16'0 0.0
2017-Jun-24 12:30N 52°06' E 004°16'0 0.0
2017-Jun-24 12:00N 52°06' E 004°16'0 0.0
2017-Jun-24 11:30N 52°06' E 004°16'0 0.0
2017-Jun-24 11:00N 52°06' E 004°16'0 0.0
2017-Jun-24 10:30N 52°06' E 004°16'0 0.0
2017-Jun-24 10:00N 52°06' E 004°16'0 0.0
2017-Jun-24 09:30N 52°06' E 004°16'0 0.0
2017-Jun-24 09:00N 52°06' E 004°16'0 0.0
2017-Jun-24 08:30N 52°06' E 004°16'0 0.0
2017-Jun-24 08:00N 52°06' E 004°16'0 0.0
2017-Jun-24 07:30N 52°06' E 004°16'0 0.0
2017-Jun-24 07:00N 52°06' E 004°16'0 0.0
2017-Jun-24 06:30N 52°06' E 004°16'0 0.0
2017-Jun-24 06:00N 52°06' E 004°16'0 0.0
2017-Jun-24 05:30N 52°06' E 004°16'0 0.0
2017-Jun-24 05:00N 52°06' E 004°16'0 0.0
2017-Jun-24 04:30N 52°06' E 004°16'0 0.0
2017-Jun-24 04:00N 52°06' E 004°16'0 0.0
2017-Jun-24 03:30N 52°06' E 004°16'0 0.0
2017-Jun-24 03:00N 52°06' E 004°16'0 0.0
2017-Jun-24 02:30N 52°06' E 004°16'0 0.0
2017-Jun-24 02:00N 52°06' E 004°16'0 0.0
2017-Jun-24 01:30N 52°06' E 004°16'0 0.0
2017-Jun-24 01:00N 52°06' E 004°16'0 0.0
2017-Jun-24 00:30N 52°06' E 004°16'0 0.0
2017-Jun-24 00:00N 52°06' E 004°16'0 0.0
2017-Jun-23 23:30N 52°06' E 004°16'0 0.0
2017-Jun-23 23:00N 52°06' E 004°16'0 0.0
2017-Jun-23 22:30N 52°06' E 004°16'0 0.0
2017-Jun-23 22:00N 52°06' E 004°16'0 0.0
2017-Jun-23 21:30N 52°06' E 004°16'0 0.0
2017-Jun-23 21:00N 52°06' E 004°16'0 0.0
2017-Jun-23 20:30N 52°06' E 004°16'0 0.0
2017-Jun-23 20:01N 52°06' E 004°16'0 0.0
2017-Jun-23 19:30N 52°06' E 004°16'0 0.0
2017-Jun-23 19:01N 52°06' E 004°16'0 0.0
2017-Jun-23 18:30N 52°06' E 004°16'0 0.0
2017-Jun-23 18:00N 52°06' E 004°16'0 0.0
2017-Jun-23 17:30N 52°06' E 004°16'0 0.0
2017-Jun-23 17:00N 52°06' E 004°16'0 0.0
2017-Jun-23 16:30N 52°06' E 004°16'0 0.0
2017-Jun-23 16:00N 52°06' E 004°16'0 0.0
2017-Jun-23 15:30N 52°06' E 004°16'0 0.0
2017-Jun-23 15:01N 52°06' E 004°16'0 0.0
2017-Jun-23 14:00N 52°06' E 004°16'0 0.0
2017-Jun-23 13:30N 52°06' E 004°16'0 0.0
2017-Jun-23 13:00N 52°06' E 004°16'0 0.0
2017-Jun-23 12:30N 52°06' E 004°16'0 0.0
2017-Jun-23 12:00N 52°06' E 004°16'0 0.0
2017-Jun-23 11:30N 52°06' E 004°16'0 0.0
2017-Jun-23 11:00N 52°06' E 004°16'0 0.0
2017-Jun-23 10:30N 52°06' E 004°16'0 0.0
2017-Jun-23 10:00N 52°06' E 004°16'0 0.0
2017-Jun-23 09:30N 52°06' E 004°16'0 0.0
2017-Jun-23 09:00N 52°06' E 004°16'0 0.0
2017-Jun-23 08:30N 52°06' E 004°16'0 0.0
2017-Jun-23 08:00N 52°06' E 004°16'0 0.0
2017-Jun-23 07:30N 52°06' E 004°16'0 0.0
2017-Jun-23 07:00N 52°06' E 004°16'0 0.0
2017-Jun-23 06:30N 52°06' E 004°16'0 0.0
2017-Jun-23 06:00N 52°06' E 004°16'0 0.0
2017-Jun-23 05:30N 52°06' E 004°16'0 0.0
2017-Jun-23 05:00N 52°06' E 004°16'0 0.0
2017-Jun-23 04:30N 52°06' E 004°16'0 0.0
2017-Jun-23 04:00N 52°06' E 004°16'0 0.0
2017-Jun-23 03:30N 52°06' E 004°16'0 0.0
2017-Jun-23 03:00N 52°06' E 004°16'0 0.0
2017-Jun-23 02:30N 52°06' E 004°16'0 0.0
2017-Jun-23 02:00N 52°06' E 004°16'0 0.0
2017-Jun-23 01:30N 52°06' E 004°16'0 0.0
2017-Jun-23 01:00N 52°06' E 004°16'0 0.0
2017-Jun-23 00:30N 52°06' E 004°16'0 0.0
2017-Jun-23 00:00N 52°06' E 004°16'0 0.0
2017-Jun-22 23:30N 52°06' E 004°16'0 0.0
2017-Jun-22 23:00N 52°06' E 004°16'0 0.0
2017-Jun-22 22:30N 52°06' E 004°16'0 0.0
2017-Jun-22 22:00N 52°06' E 004°16'0 0.0
2017-Jun-22 21:30N 52°06' E 004°16'0 0.0
2017-Jun-22 21:00N 52°06' E 004°16'0 0.0
2017-Jun-22 20:30N 52°06' E 004°16'0 0.0
2017-Jun-22 20:00N 52°06' E 004°16'0 0.0
2017-Jun-22 19:30N 52°06' E 004°16'0 0.0
2017-Jun-22 19:00N 52°06' E 004°16'0 0.0
2017-Jun-22 18:30N 52°06' E 004°16'0 0.0
2017-Jun-22 18:00N 52°06' E 004°16'0 0.0
2017-Jun-22 17:30N 52°06' E 004°16'0 0.0
2017-Jun-22 17:00N 52°06' E 004°16'0 0.0
2017-Jun-22 16:30N 52°06' E 004°16'0 0.0
2017-Jun-22 16:00N 52°06' E 004°16'0 0.0
2017-Jun-22 15:30N 52°06' E 004°16'0 0.0
2017-Jun-22 15:00N 52°06' E 004°16'0 0.0
2017-Jun-22 14:30N 52°06' E 004°16'0 0.0
2017-Jun-22 13:30N 52°06' E 004°16'0 0.0
2017-Jun-22 13:00N 52°06' E 004°16'0 0.0
2017-Jun-22 12:30N 52°06' E 004°16'0 0.0
2017-Jun-22 12:01N 52°06' E 004°16'0 0.0
2017-Jun-22 11:30N 52°06' E 004°16'0 0.0
2017-Jun-22 11:00N 52°06' E 004°16'0 0.0
2017-Jun-22 10:30N 52°06' E 004°16'0 0.0
2017-Jun-22 10:00N 52°06' E 004°16'0 0.0
2017-Jun-22 09:30N 52°06' E 004°16'0 0.0
2017-Jun-22 09:00N 52°06' E 004°16'0 0.0
2017-Jun-22 08:30N 52°06' E 004°16'0 0.0
2017-Jun-22 08:00N 52°06' E 004°16'0 0.0
2017-Jun-22 07:30N 52°06' E 004°16'0 0.0
2017-Jun-22 07:00N 52°06' E 004°16'0 0.0
2017-Jun-22 06:30N 52°06' E 004°16'0 0.0
2017-Jun-22 06:00N 52°06' E 004°16'0 0.0
2017-Jun-22 05:30N 52°06' E 004°16'0 0.0
2017-Jun-22 05:00N 52°06' E 004°16'0 0.0
2017-Jun-22 04:30N 52°06' E 004°16'0 0.0
2017-Jun-22 04:00N 52°06' E 004°16'0 0.0
2017-Jun-22 03:30N 52°06' E 004°16'0 0.0
2017-Jun-22 03:00N 52°06' E 004°16'0 0.0
2017-Jun-22 02:30N 52°06' E 004°16'0 0.0
2017-Jun-22 02:00N 52°06' E 004°16'0 0.0
2017-Jun-22 01:30N 52°06' E 004°16'0 0.0
2017-Jun-22 01:00N 52°06' E 004°16'0 0.0
2017-Jun-22 00:30N 52°06' E 004°16'0 0.0
2017-Jun-22 00:00N 52°06' E 004°16'0 0.0
2017-Jun-21 23:30N 52°06' E 004°16'0 0.0
2017-Jun-21 23:00N 52°06' E 004°16'0 0.0
2017-Jun-21 22:30N 52°06' E 004°16'0 0.0
2017-Jun-21 22:00N 52°06' E 004°16'0 0.0
2017-Jun-21 21:30N 52°06' E 004°16'0 0.0
2017-Jun-21 21:00N 52°06' E 004°16'0 0.0
2017-Jun-21 20:30N 52°06' E 004°16'0 0.0
2017-Jun-21 20:00N 52°06' E 004°16'0 0.0
2017-Jun-21 19:30N 52°06' E 004°16'0 0.0
2017-Jun-21 19:00N 52°06' E 004°16'0 0.0
2017-Jun-21 18:30N 52°06' E 004°16'0 0.0
2017-Jun-21 18:00N 52°06' E 004°16'0 0.0
2017-Jun-21 17:30N 52°06' E 004°16'0 0.0
2017-Jun-21 17:00N 52°06' E 004°16'0 0.0
2017-Jun-21 16:30N 52°06' E 004°16'0 0.0
2017-Jun-21 16:00N 52°06' E 004°16'0 0.0
2017-Jun-21 15:30N 52°06' E 004°16'0 0.0
2017-Jun-21 15:00N 52°06' E 004°16'0 0.0
2017-Jun-21 14:30N 52°06' E 004°16'0 0.0
2017-Jun-21 13:30N 52°06' E 004°16'0 0.0
2017-Jun-21 13:00N 52°06' E 004°16'0 0.0
2017-Jun-21 12:30N 52°06' E 004°16'0 0.0
2017-Jun-21 12:00N 52°06' E 004°16'0 0.0
2017-Jun-21 11:30N 52°06' E 004°16'0 0.0
2017-Jun-21 11:00N 52°06' E 004°16'0 0.0
2017-Jun-21 10:30N 52°06' E 004°16'0 0.0
2017-Jun-21 10:00N 52°06' E 004°16'0 0.0
2017-Jun-21 09:30N 52°06' E 004°16'0 0.0
2017-Jun-21 09:00N 52°06' E 004°16'0 0.0
2017-Jun-21 08:30N 52°06' E 004°16'0 0.0
2017-Jun-21 08:00N 52°06' E 004°16'0 0.0
2017-Jun-21 07:30N 52°06' E 004°16'0 0.0
2017-Jun-21 07:00N 52°06' E 004°16'0 0.0
2017-Jun-21 06:30N 52°06' E 004°16'0 0.0
2017-Jun-21 06:00N 52°06' E 004°16'0 0.0
2017-Jun-21 05:30N 52°06' E 004°16'0 0.0
2017-Jun-21 05:00N 52°06' E 004°16'0 0.0
2017-Jun-21 04:30N 52°06' E 004°16'0 0.0
2017-Jun-21 04:00N 52°06' E 004°16'0 0.0
2017-Jun-21 03:30N 52°06' E 004°16'0 0.0
2017-Jun-21 03:00N 52°06' E 004°16'0 0.0
2017-Jun-21 02:30N 52°06' E 004°16'0 0.0
2017-Jun-21 02:00N 52°06' E 004°16'0 0.0
2017-Jun-21 01:30N 52°06' E 004°16'0 0.0
2017-Jun-21 01:00N 52°06' E 004°16'0 0.0
2017-Jun-21 00:30N 52°06' E 004°16'0 0.0
2017-Jun-21 00:00N 52°06' E 004°16'0 0.0
2017-Jun-20 23:30N 52°06' E 004°16'0 0.0
2017-Jun-20 23:00N 52°06' E 004°16'0 0.0
2017-Jun-20 22:30N 52°06' E 004°16'0 0.0
2017-Jun-20 22:00N 52°06' E 004°16'0 0.0
2017-Jun-20 21:30N 52°06' E 004°16'0 0.0
2017-Jun-20 21:00N 52°06' E 004°16'0 0.0
2017-Jun-20 20:30N 52°06' E 004°16'0 0.0
2017-Jun-20 20:00N 52°06' E 004°16'0 0.0
2017-Jun-20 19:30N 52°06' E 004°16'0 0.0
2017-Jun-20 19:00N 52°06' E 004°16'0 0.0
2017-Jun-20 18:30N 52°06' E 004°16'0 0.0
2017-Jun-20 18:00N 52°06' E 004°16'0 0.0
2017-Jun-20 17:30N 52°06' E 004°16'0 0.0
2017-Jun-20 17:00N 52°06' E 004°16'0 0.0
2017-Jun-20 16:30N 52°06' E 004°16'0 0.0
2017-Jun-20 16:00N 52°06' E 004°16'0 0.0
2017-Jun-20 15:30N 52°06' E 004°16'0 0.0
2017-Jun-20 15:00N 52°06' E 004°16'0 0.0
2017-Jun-20 14:30N 52°06' E 004°16'0 0.0
2017-Jun-20 13:30N 52°06' E 004°16'0 0.0
2017-Jun-20 13:00N 52°06' E 004°16'0 0.0
2017-Jun-20 12:30N 52°06' E 004°16'0 0.0
2017-Jun-20 12:00N 52°06' E 004°16'0 0.0
2017-Jun-20 11:30N 52°06' E 004°16'0 0.0
2017-Jun-20 11:00N 52°06' E 004°16'0 0.0
2017-Jun-20 10:30N 52°06' E 004°16'0 0.0
2017-Jun-20 10:00N 52°06' E 004°16'0 0.0
2017-Jun-20 09:30N 52°06' E 004°16'0 0.0
2017-Jun-20 09:00N 52°06' E 004°16'0 0.0
2017-Jun-20 08:30N 52°06' E 004°16'0 0.0
2017-Jun-20 08:00N 52°06' E 004°16'0 0.0
2017-Jun-20 07:30N 52°06' E 004°16'0 0.0
2017-Jun-20 07:00N 52°06' E 004°16'0 0.0
2017-Jun-20 06:30N 52°06' E 004°16'0 0.0
2017-Jun-20 06:00N 52°06' E 004°16'0 0.0
2017-Jun-20 05:30N 52°06' E 004°16'0 0.0
2017-Jun-20 05:00N 52°06' E 004°16'0 0.0
2017-Jun-20 04:30N 52°06' E 004°16'0 0.0
2017-Jun-20 04:00N 52°06' E 004°16'0 0.0
2017-Jun-20 03:30N 52°06' E 004°16'0 0.0
2017-Jun-20 03:00N 52°06' E 004°16'0 0.0
2017-Jun-20 02:30N 52°06' E 004°16'0 0.0
2017-Jun-20 02:00N 52°06' E 004°16'0 0.0
2017-Jun-20 01:30N 52°06' E 004°16'0 0.0
2017-Jun-20 01:00N 52°06' E 004°16'0 0.0
2017-Jun-20 00:30N 52°06' E 004°16'0 0.0
2017-Jun-20 00:00N 52°06' E 004°16'0 0.0
2017-Jun-19 23:30N 52°06' E 004°16'0 0.0
2017-Jun-19 23:00N 52°06' E 004°16'0 0.0
2017-Jun-19 22:30N 52°06' E 004°16'0 0.0
2017-Jun-19 22:00N 52°06' E 004°16'0 0.0
2017-Jun-19 21:30N 52°06' E 004°16'0 0.0
2017-Jun-19 21:00N 52°06' E 004°16'0 0.0
2017-Jun-19 20:30N 52°06' E 004°16'0 0.0
2017-Jun-19 20:00N 52°06' E 004°16'0 0.0
2017-Jun-19 19:30N 52°06' E 004°16'0 0.0
2017-Jun-19 19:00N 52°06' E 004°16'0 0.0
2017-Jun-19 18:30N 52°06' E 004°16'0 0.0
2017-Jun-19 18:00N 52°06' E 004°16'0 0.0
2017-Jun-19 17:30N 52°06' E 004°16'0 0.0
2017-Jun-19 17:00N 52°06' E 004°16'0 0.0
2017-Jun-19 16:30N 52°06' E 004°16'0 0.0
2017-Jun-19 16:00N 52°06' E 004°16'0 0.0
2017-Jun-19 15:30N 52°06' E 004°16'0 0.0
2017-Jun-19 15:00N 52°06' E 004°16'0 0.0
2017-Jun-19 14:31N 52°06' E 004°16'0 0.0
2017-Jun-19 13:30N 52°06' E 004°16'0 0.0
2017-Jun-19 13:00N 52°06' E 004°16'0 0.0
2017-Jun-19 12:30N 52°06' E 004°16'0 0.0
2017-Jun-19 12:00N 52°06' E 004°16'0 0.0
2017-Jun-19 11:30N 52°06' E 004°16'0 0.0
2017-Jun-19 11:00N 52°06' E 004°16'0 0.0
2017-Jun-19 10:30N 52°06' E 004°16'0 0.0
2017-Jun-19 10:00N 52°06' E 004°16'0 0.0
2017-Jun-19 09:30N 52°06' E 004°16'0 0.0
2017-Jun-19 09:00N 52°06' E 004°16'0 0.0
2017-Jun-19 08:30N 52°06' E 004°16'0 0.0
2017-Jun-19 08:00N 52°06' E 004°16'0 0.0
2017-Jun-19 07:30N 52°06' E 004°16'0 0.0
2017-Jun-19 07:00N 52°06' E 004°16'0 0.0
2017-Jun-19 06:30N 52°06' E 004°16'0 0.0
2017-Jun-19 06:00N 52°06' E 004°16'0 0.0
2017-Jun-19 05:30N 52°06' E 004°16'0 0.0
2017-Jun-19 05:00N 52°06' E 004°16'0 0.0
2017-Jun-19 04:30N 52°06' E 004°16'0 0.0
2017-Jun-19 04:00N 52°06' E 004°16'0 0.0
2017-Jun-19 03:30N 52°06' E 004°16'0 0.0
2017-Jun-19 03:00N 52°06' E 004°16'0 0.0
2017-Jun-19 02:30N 52°06' E 004°16'0 0.0
2017-Jun-19 02:00N 52°06' E 004°16'0 0.0
2017-Jun-19 01:30N 52°06' E 004°16'0 0.0
2017-Jun-19 01:00N 52°06' E 004°16'0 0.0
2017-Jun-19 00:30N 52°06' E 004°16'0 0.0
2017-Jun-19 00:00N 52°06' E 004°16'0 0.0
2017-Jun-18 23:30N 52°06' E 004°16'0 0.0
2017-Jun-18 23:00N 52°06' E 004°16'0 0.0
2017-Jun-18 22:30N 52°06' E 004°16'0 0.0
2017-Jun-18 22:00N 52°06' E 004°16'0 0.0
2017-Jun-18 21:30N 52°06' E 004°16'0 0.0
2017-Jun-18 21:00N 52°06' E 004°16'0 0.0
2017-Jun-18 20:30N 52°06' E 004°16'0 0.0
2017-Jun-18 20:00N 52°06' E 004°16'0 0.0
2017-Jun-18 19:30N 52°06' E 004°16'0 0.0
2017-Jun-18 19:00N 52°06' E 004°16'  
Track history (hours):
 
Tides and Currents Weather Stations Pressure Air Temp Water Temp Dewpoint Dewpoint Depression Visibility Wind Speed Wind Dir Waves Ship Positions

Artisgracht

Last reported at 2017-Jun-28 19:00 UTC. Time now 2017-Jun-28 19:25 UTC.
Position N 52°06' E 004°16'.

Length 130 m; beam 19 m; draft 9 m.

Type: Fishing. MMSI: 244090401.

Date/timePositionNaut miles runAvg speedWind from/ knotsBaromVisibWave heightAir tempDewpointWater temp
2017-Jun-28 19:00N 52°06' E 004°16'0 0.0
2017-Jun-28 18:31N 52°06' E 004°16'0 0.0
2017-Jun-28 18:01N 52°06' E 004°16'0 0.0
2017-Jun-28 17:30N 52°06' E 004°16'0 0.5
2017-Jun-28 17:01N 52°06' E 004°16'0 0.0
2017-Jun-28 16:31N 52°06' E 004°16'0 0.1
2017-Jun-28 16:01N 52°06' E 004°16'3 5.5
2017-Jun-28 15:31N 52°04' E 004°12'2 4.0
2017-Jun-28 15:00N 52°06' E 004°14'1 0.6
2017-Jun-28 14:01N 52°05' E 004°14'1 2.0
2017-Jun-28 13:31N 52°06' E 004°15'2 3.2
2017-Jun-28 13:01N 52°05' E 004°13'1 1.5
2017-Jun-28 12:30N 52°04' E 004°13'1 1.1
2017-Jun-28 12:01N 52°05' E 004°13'1 1.7
2017-Jun-28 11:31N 52°05' E 004°14'2 3.3
2017-Jun-28 11:01N 52°04' E 004°12'1 1.4
2017-Jun-28 10:30N 52°05' E 004°13'1 1.6
2017-Jun-28 10:01N 52°05' E 004°14'1 2.5
2017-Jun-28 09:30N 52°06' E 004°15'1 1.2
2017-Jun-28 09:01N 52°06' E 004°16'0 0.0
2017-Jun-28 08:30N 52°06' E 004°16'0 0.0
2017-Jun-28 08:01N 52°06' E 004°16'0 0.0
2017-Jun-28 07:31N 52°06' E 004°16'0 0.0
2017-Jun-28 07:01N 52°06' E 004°16'0 0.0
2017-Jun-28 06:31N 52°06' E 004°16'0 0.0
2017-Jun-28 06:00N 52°06' E 004°16'0 0.0
2017-Jun-28 05:31N 52°06' E 004°16'0 0.0
2017-Jun-28 05:01N 52°06' E 004°16'0 0.0
2017-Jun-28 04:30N 52°06' E 004°16'0 0.0
2017-Jun-28 04:01N 52°06' E 004°16'0 0.0
2017-Jun-28 03:31N 52°06' E 004°16'0 0.0
2017-Jun-28 03:00N 52°06' E 004°16'0 0.0
2017-Jun-28 02:31N 52°06' E 004°16'0 0.0
2017-Jun-28 02:01N 52°06' E 004°16'0 0.0
2017-Jun-28 01:30N 52°06' E 004°16'0 0.0
2017-Jun-28 01:01N 52°06' E 004°16'0 0.0
2017-Jun-28 00:31N 52°06' E 004°16'0 0.0
2017-Jun-28 00:01N 52°06' E 004°16'0 0.0
2017-Jun-27 23:31N 52°06' E 004°16'0 0.0
2017-Jun-27 23:01N 52°06' E 004°16'0 0.0
2017-Jun-27 22:31N 52°06' E 004°16'0 0.0
2017-Jun-27 22:01N 52°06' E 004°16'0 0.0
2017-Jun-27 21:31N 52°06' E 004°16'0 0.0
2017-Jun-27 21:00N 52°06' E 004°16'0 0.0
2017-Jun-27 20:31N 52°06' E 004°16'0 0.0
2017-Jun-27 20:01N 52°06' E 004°16'0 0.0
2017-Jun-27 19:31N 52°06' E 004°16'0 0.0
2017-Jun-27 19:01N 52°06' E 004°16'1 2.3
2017-Jun-27 18:31N 52°06' E 004°14'2 3.8
2017-Jun-27 18:00N 52°04' E 004°12'1 2.5
2017-Jun-27 17:30N 52°05' E 004°14'2 3.3
2017-Jun-27 17:01N 52°04' E 004°12'2 3.6
2017-Jun-27 16:31N 52°06' E 004°13'2 3.5
2017-Jun-27 16:01N 52°06' E 004°16'0 0.2
2017-Jun-27 15:31N 52°06' E 004°16'0 0.0
2017-Jun-27 15:00N 52°06' E 004°16'0 0.0
2017-Jun-27 14:31N 52°06' E 004°16'0 0.0
2017-Jun-27 13:31N 52°06' E 004°16'0 0.0
2017-Jun-27 13:01N 52°06' E 004°16'0 0.0
2017-Jun-27 12:30N 52°06' E 004°16'0 0.0
2017-Jun-27 12:01N 52°06' E 004°16'0 0.0
2017-Jun-27 11:31N 52°06' E 004°16'0 0.0
2017-Jun-27 11:00N 52°06' E 004°16'0 0.0
2017-Jun-27 10:31N 52°06' E 004°16'0 0.0
2017-Jun-27 10:01N 52°06' E 004°16'0 0.0
2017-Jun-27 09:30N 52°06' E 004°16'0 0.0
2017-Jun-27 09:01N 52°06' E 004°16'0 0.0
2017-Jun-27 08:31N 52°06' E 004°16'0 0.0
2017-Jun-27 08:01N 52°06' E 004°16'0 0.0
2017-Jun-27 07:31N 52°06' E 004°16'0 0.0
2017-Jun-27 07:01N 52°06' E 004°16'0 0.0
2017-Jun-27 06:31N 52°06' E 004°16'0 0.0
2017-Jun-27 06:01N 52°06' E 004°16'0 0.0
2017-Jun-27 05:31N 52°06' E 004°16'0 0.0
2017-Jun-27 05:01N 52°06' E 004°16'0 0.0
2017-Jun-27 04:31N 52°06' E 004°16'0 0.0
2017-Jun-27 04:00N 52°06' E 004°16'0 0.0
2017-Jun-27 03:31N 52°06' E 004°16'0 0.0
2017-Jun-27 03:01N 52°06' E 004°16'0 0.0
2017-Jun-27 02:31N 52°06' E 004°16'0 0.0
2017-Jun-27 02:01N 52°06' E 004°16'0 0.0
2017-Jun-27 01:31N 52°06' E 004°16'0 0.0
2017-Jun-27 01:01N 52°06' E 004°16'0 0.0
2017-Jun-27 00:31N 52°06' E 004°16'0 0.0
2017-Jun-27 00:01N 52°06' E 004°16'0 0.0
2017-Jun-26 23:31N 52°06' E 004°16'0 0.0
2017-Jun-26 23:01N 52°06' E 004°16'0 0.0
2017-Jun-26 22:31N 52°06' E 004°16'0 0.0
2017-Jun-26 22:01N 52°06' E 004°16'0 0.0
2017-Jun-26 21:31N 52°06' E 004°16'0 0.0
2017-Jun-26 21:00N 52°06' E 004°16'0 0.0
2017-Jun-26 20:30N 52°06' E 004°16'0 0.0
2017-Jun-26 20:01N 52°06' E 004°16'0 0.0
2017-Jun-26 19:31N 52°06' E 004°16'0 0.0
2017-Jun-26 19:01N 52°06' E 004°16'0 0.0
2017-Jun-26 18:30N 52°06' E 004°16'0 0.0
2017-Jun-26 18:01N 52°06' E 004°16'0 0.0
2017-Jun-26 17:31N 52°06' E 004°16'0 0.0
2017-Jun-26 17:01N 52°06' E 004°16'0 0.0
2017-Jun-26 16:31N 52°06' E 004°16'0 0.0
2017-Jun-26 16:00N 52°06' E 004°16'0 0.0
2017-Jun-26 15:31N 52°06' E 004°16'0 0.0
2017-Jun-26 15:01N 52°06' E 004°16'0 0.0
2017-Jun-26 14:31N 52°06' E 004°16'0 0.0
2017-Jun-26 13:31N 52°06' E 004°16'0 0.0
2017-Jun-26 13:00N 52°06' E 004°16'0 0.0
2017-Jun-26 12:31N 52°06' E 004°16'0 0.0
2017-Jun-26 12:01N 52°06' E 004°16'0 0.0
2017-Jun-26 11:31N 52°06' E 004°16'0 0.0
2017-Jun-26 11:01N 52°06' E 004°16'0 0.0
2017-Jun-26 10:31N 52°06' E 004°16'0 0.0
2017-Jun-26 10:01N 52°06' E 004°16'0 0.0
2017-Jun-26 09:30N 52°06' E 004°16'0 0.0
2017-Jun-26 09:01N 52°06' E 004°16'0 0.0
2017-Jun-26 08:31N 52°06' E 004°16'0 0.0
2017-Jun-26 08:01N 52°06' E 004°16'0 0.0
2017-Jun-26 07:30N 52°06' E 004°16'0 0.0
2017-Jun-26 07:01N 52°06' E 004°16'0 0.0
2017-Jun-26 06:31N 52°06' E 004°16'0 0.0
2017-Jun-26 06:01N 52°06' E 004°16'0 0.0
2017-Jun-26 05:30N 52°06' E 004°16'0 0.0
2017-Jun-26 05:00N 52°06' E 004°16'0 0.0
2017-Jun-26 04:31N 52°06' E 004°16'0 0.0
2017-Jun-26 04:01N 52°06' E 004°16'0 0.0
2017-Jun-26 03:31N 52°06' E 004°16'0 0.0
2017-Jun-26 03:01N 52°06' E 004°16'0 0.0
2017-Jun-26 02:31N 52°06' E 004°16'0 0.0
2017-Jun-26 02:01N 52°06' E 004°16'0 0.0
2017-Jun-26 01:31N 52°06' E 004°16'0 0.0
2017-Jun-26 01:00N 52°06' E 004°16'0 0.0
2017-Jun-26 00:30N 52°06' E 004°16'0 0.0
2017-Jun-26 00:01N 52°06' E 004°16'0 0.0
2017-Jun-25 23:30N 52°06' E 004°16'0 0.0
2017-Jun-25 23:01N 52°06' E 004°16'0 0.0
2017-Jun-25 22:31N 52°06' E 004°16'0 0.0
2017-Jun-25 22:01N 52°06' E 004°16'0 0.0
2017-Jun-25 21:30N 52°06' E 004°16'0 0.0
2017-Jun-25 21:01N 52°06' E 004°16'0 0.0
2017-Jun-25 20:30N 52°06' E 004°16'0 0.0
2017-Jun-25 20:01N 52°06' E 004°16'0 0.0
2017-Jun-25 19:31N 52°06' E 004°16'0 0.0
2017-Jun-25 19:00N 52°06' E 004°16'0 0.0
2017-Jun-25 18:31N 52°06' E 004°16'0 0.0
2017-Jun-25 18:01N 52°06' E 004°16'0 0.0
2017-Jun-25 17:31N 52°06' E 004°16'0 0.0
2017-Jun-25 17:01N 52°06' E 004°16'0 0.0
2017-Jun-25 16:30N 52°06' E 004°16'0 0.0
2017-Jun-25 16:00N 52°06' E 004°16'0 0.0
2017-Jun-25 15:30N 52°06' E 004°16'0 0.0
2017-Jun-25 15:00N 52°06' E 004°16'0 0.0
2017-Jun-25 14:00N 52°06' E 004°16'0 0.0
2017-Jun-25 13:30N 52°06' E 004°16'0 0.0
2017-Jun-25 13:00N 52°06' E 004°16'0 0.0
2017-Jun-25 12:30N 52°06' E 004°16'0 0.0
2017-Jun-25 12:00N 52°06' E 004°16'0 0.0
2017-Jun-25 11:30N 52°06' E 004°16'0 0.0
2017-Jun-25 11:00N 52°06' E 004°16'0 0.0
2017-Jun-25 10:30N 52°06' E 004°16'0 0.0
2017-Jun-25 10:00N 52°06' E 004°16'0 0.0
2017-Jun-25 09:30N 52°06' E 004°16'0 0.0
2017-Jun-25 09:00N 52°06' E 004°16'0 0.0
2017-Jun-25 08:30N 52°06' E 004°16'0 0.0
2017-Jun-25 08:00N 52°06' E 004°16'0 0.0
2017-Jun-25 07:30N 52°06' E 004°16'0 0.0
2017-Jun-25 07:00N 52°06' E 004°16'0 0.0
2017-Jun-25 06:30N 52°06' E 004°16'0 0.0
2017-Jun-25 06:00N 52°06' E 004°16'0 0.0
2017-Jun-25 05:30N 52°06' E 004°16'0 0.0
2017-Jun-25 05:00N 52°06' E 004°16'0 0.0
2017-Jun-25 04:30N 52°06' E 004°16'0 0.0
2017-Jun-25 04:00N 52°06' E 004°16'0 0.0
2017-Jun-25 03:30N 52°06' E 004°16'0 0.0
2017-Jun-25 03:00N 52°06' E 004°16'0 0.0
2017-Jun-25 02:30N 52°06' E 004°16'0 0.0
2017-Jun-25 02:00N 52°06' E 004°16'0 0.0
2017-Jun-25 01:30N 52°06' E 004°16'0 0.0
2017-Jun-25 01:00N 52°06' E 004°16'0 0.0
2017-Jun-25 00:30N 52°06' E 004°16'0 0.0
2017-Jun-25 00:00N 52°06' E 004°16'0 0.0
2017-Jun-24 23:30N 52°06' E 004°16'0 0.0
2017-Jun-24 23:00N 52°06' E 004°16'0 0.0
2017-Jun-24 22:30N 52°06' E 004°16'0 0.0
2017-Jun-24 22:00N 52°06' E 004°16'0 0.0
2017-Jun-24 21:30N 52°06' E 004°16'0 0.0
2017-Jun-24 21:00N 52°06' E 004°16'0 0.0
2017-Jun-24 20:30N 52°06' E 004°16'0 0.0
2017-Jun-24 20:00N 52°06' E 004°16'0 0.0
2017-Jun-24 19:30N 52°06' E 004°16'0 0.0
2017-Jun-24 19:00N 52°06' E 004°16'0 0.0
2017-Jun-24 18:30N 52°06' E 004°16'0 0.0
2017-Jun-24 18:00N 52°06' E 004°16'0 0.0
2017-Jun-24 17:30N 52°06' E 004°16'0 0.0
2017-Jun-24 17:00N 52°06' E 004°16'0 0.0
2017-Jun-24 16:30N 52°06' E 004°16'0 0.0
2017-Jun-24 16:00N 52°06' E 004°16'0 0.0
2017-Jun-24 15:30N 52°06' E 004°16'0 0.0
2017-Jun-24 15:00N 52°06' E 004°16'0 0.0
2017-Jun-24 14:00N 52°06' E 004°16'0 0.0
2017-Jun-24 13:30N 52°06' E 004°16'0 0.0
2017-Jun-24 13:00N 52°06' E 004°16'0 0.0
2017-Jun-24 12:30N 52°06' E 004°16'0 0.0
2017-Jun-24 12:00N 52°06' E 004°16'0 0.0
2017-Jun-24 11:30N 52°06' E 004°16'0 0.0
2017-Jun-24 11:00N 52°06' E 004°16'0 0.0
2017-Jun-24 10:30N 52°06' E 004°16'0 0.0
2017-Jun-24 10:00N 52°06' E 004°16'0 0.0
2017-Jun-24 09:30N 52°06' E 004°16'0 0.0
2017-Jun-24 09:00N 52°06' E 004°16'0 0.0
2017-Jun-24 08:30N 52°06' E 004°16'0 0.0
2017-Jun-24 08:00N 52°06' E 004°16'0 0.0
2017-Jun-24 07:30N 52°06' E 004°16'0 0.0
2017-Jun-24 07:00N 52°06' E 004°16'0 0.0
2017-Jun-24 06:30N 52°06' E 004°16'0 0.0
2017-Jun-24 06:00N 52°06' E 004°16'0 0.0
2017-Jun-24 05:30N 52°06' E 004°16'0 0.0
2017-Jun-24 05:00N 52°06' E 004°16'0 0.0
2017-Jun-24 04:30N 52°06' E 004°16'0 0.0
2017-Jun-24 04:00N 52°06' E 004°16'0 0.0
2017-Jun-24 03:30N 52°06' E 004°16'0 0.0
2017-Jun-24 03:00N 52°06' E 004°16'0 0.0
2017-Jun-24 02:30N 52°06' E 004°16'0 0.0
2017-Jun-24 02:00N 52°06' E 004°16'0 0.0
2017-Jun-24 01:30N 52°06' E 004°16'0 0.0
2017-Jun-24 01:00N 52°06' E 004°16'0 0.0
2017-Jun-24 00:30N 52°06' E 004°16'0 0.0
2017-Jun-24 00:00N 52°06' E 004°16'0 0.0
2017-Jun-23 23:30N 52°06' E 004°16'0 0.0
2017-Jun-23 23:00N 52°06' E 004°16'0 0.0
2017-Jun-23 22:30N 52°06' E 004°16'0 0.0
2017-Jun-23 22:00N 52°06' E 004°16'0 0.0
2017-Jun-23 21:30N 52°06' E 004°16'0 0.0
2017-Jun-23 21:00N 52°06' E 004°16'0 0.0
2017-Jun-23 20:30N 52°06' E 004°16'0 0.0
2017-Jun-23 20:01N 52°06' E 004°16'0 0.0
2017-Jun-23 19:30N 52°06' E 004°16'0 0.0
2017-Jun-23 19:01N 52°06' E 004°16'0 0.0
2017-Jun-23 18:30N 52°06' E 004°16'0 0.0
2017-Jun-23 18:00N 52°06' E 004°16'0 0.0
2017-Jun-23 17:30N 52°06' E 004°16'0 0.0
2017-Jun-23 17:00N 52°06' E 004°16'0 0.0
2017-Jun-23 16:30N 52°06' E 004°16'0 0.0
2017-Jun-23 16:00N 52°06' E 004°16'0 0.0
2017-Jun-23 15:30N 52°06' E 004°16'0 0.0
2017-Jun-23 15:01N 52°06' E 004°16'0 0.0
2017-Jun-23 14:00N 52°06' E 004°16'0 0.0
2017-Jun-23 13:30N 52°06' E 004°16'0 0.0
2017-Jun-23 13:00N 52°06' E 004°16'0 0.0
2017-Jun-23 12:30N 52°06' E 004°16'0 0.0
2017-Jun-23 12:00N 52°06' E 004°16'0 0.0
2017-Jun-23 11:30N 52°06' E 004°16'0 0.0
2017-Jun-23 11:00N 52°06' E 004°16'0 0.0
2017-Jun-23 10:30N 52°06' E 004°16'0 0.0
2017-Jun-23 10:00N 52°06' E 004°16'0 0.0
2017-Jun-23 09:30N 52°06' E 004°16'0 0.0
2017-Jun-23 09:00N 52°06' E 004°16'0 0.0
2017-Jun-23 08:30N 52°06' E 004°16'0 0.0
2017-Jun-23 08:00N 52°06' E 004°16'0 0.0
2017-Jun-23 07:30N 52°06' E 004°16'0 0.0
2017-Jun-23 07:00N 52°06' E 004°16'0 0.0
2017-Jun-23 06:30N 52°06' E 004°16'0 0.0
2017-Jun-23 06:00N 52°06' E 004°16'0 0.0
2017-Jun-23 05:30N 52°06' E 004°16'0 0.0
2017-Jun-23 05:00N 52°06' E 004°16'0 0.0
2017-Jun-23 04:30N 52°06' E 004°16'0 0.0
2017-Jun-23 04:00N 52°06' E 004°16'0 0.0
2017-Jun-23 03:30N 52°06' E 004°16'0 0.0
2017-Jun-23 03:00N 52°06' E 004°16'0 0.0
2017-Jun-23 02:30N 52°06' E 004°16'0 0.0
2017-Jun-23 02:00N 52°06' E 004°16'0 0.0
2017-Jun-23 01:30N 52°06' E 004°16'0 0.0
2017-Jun-23 01:00N 52°06' E 004°16'0 0.0
2017-Jun-23 00:30N 52°06' E 004°16'0 0.0
2017-Jun-23 00:00N 52°06' E 004°16'0 0.0
2017-Jun-22 23:30N 52°06' E 004°16'0 0.0
2017-Jun-22 23:00N 52°06' E 004°16'0 0.0
2017-Jun-22 22:30N 52°06' E 004°16'0 0.0
2017-Jun-22 22:00N 52°06' E 004°16'0 0.0
2017-Jun-22 21:30N 52°06' E 004°16'0 0.0
2017-Jun-22 21:00N 52°06' E 004°16'0 0.0
2017-Jun-22 20:30N 52°06' E 004°16'0 0.0
2017-Jun-22 20:00N 52°06' E 004°16'0 0.0
2017-Jun-22 19:30N 52°06' E 004°16'0 0.0
2017-Jun-22 19:00N 52°06' E 004°16'0 0.0
2017-Jun-22 18:30N 52°06' E 004°16'0 0.0
2017-Jun-22 18:00N 52°06' E 004°16'0 0.0
2017-Jun-22 17:30N 52°06' E 004°16'0 0.0
2017-Jun-22 17:00N 52°06' E 004°16'0 0.0
2017-Jun-22 16:30N 52°06' E 004°16'0 0.0
2017-Jun-22 16:00N 52°06' E 004°16'0 0.0
2017-Jun-22 15:30N 52°06' E 004°16'0 0.0
2017-Jun-22 15:00N 52°06' E 004°16'0 0.0
2017-Jun-22 14:30N 52°06' E 004°16'0 0.0
2017-Jun-22 13:30N 52°06' E 004°16'0 0.0
2017-Jun-22 13:00N 52°06' E 004°16'0 0.0
2017-Jun-22 12:30N 52°06' E 004°16'0 0.0
2017-Jun-22 12:01N 52°06' E 004°16'0 0.0
2017-Jun-22 11:30N 52°06' E 004°16'0 0.0
2017-Jun-22 11:00N 52°06' E 004°16'0 0.0
2017-Jun-22 10:30N 52°06' E 004°16'0 0.0
2017-Jun-22 10:00N 52°06' E 004°16'0 0.0
2017-Jun-22 09:30N 52°06' E 004°16'0 0.0
2017-Jun-22 09:00N 52°06' E 004°16'0 0.0
2017-Jun-22 08:30N 52°06' E 004°16'0 0.0
2017-Jun-22 08:00N 52°06' E 004°16'0 0.0
2017-Jun-22 07:30N 52°06' E 004°16'0 0.0
2017-Jun-22 07:00N 52°06' E 004°16'0 0.0
2017-Jun-22 06:30N 52°06' E 004°16'0 0.0
2017-Jun-22 06:00N 52°06' E 004°16'0 0.0
2017-Jun-22 05:30N 52°06' E 004°16'0 0.0
2017-Jun-22 05:00N 52°06' E 004°16'0 0.0
2017-Jun-22 04:30N 52°06' E 004°16'0 0.0
2017-Jun-22 04:00N 52°06' E 004°16'0 0.0
2017-Jun-22 03:30N 52°06' E 004°16'0 0.0
2017-Jun-22 03:00N 52°06' E 004°16'0 0.0
2017-Jun-22 02:30N 52°06' E 004°16'0 0.0
2017-Jun-22 02:00N 52°06' E 004°16'0 0.0
2017-Jun-22 01:30N 52°06' E 004°16'0 0.0
2017-Jun-22 01:00N 52°06' E 004°16'0 0.0
2017-Jun-22 00:30N 52°06' E 004°16'0 0.0
2017-Jun-22 00:00N 52°06' E 004°16'0 0.0
2017-Jun-21 23:30N 52°06' E 004°16'0 0.0
2017-Jun-21 23:00N 52°06' E 004°16'0 0.0
2017-Jun-21 22:30N 52°06' E 004°16'0 0.0
2017-Jun-21 22:00N 52°06' E 004°16'0 0.0
2017-Jun-21 21:30N 52°06' E 004°16'0 0.0
2017-Jun-21 21:00N 52°06' E 004°16'0 0.0
2017-Jun-21 20:30N 52°06' E 004°16'0 0.0
2017-Jun-21 20:00N 52°06' E 004°16'0 0.0
2017-Jun-21 19:30N 52°06' E 004°16'0 0.0
2017-Jun-21 19:00N 52°06' E 004°16'0 0.0
2017-Jun-21 18:30N 52°06' E 004°16'0 0.0
2017-Jun-21 18:00N 52°06' E 004°16'0 0.0
2017-Jun-21 17:30N 52°06' E 004°16'0 0.0
2017-Jun-21 17:00N 52°06' E 004°16'0 0.0
2017-Jun-21 16:30N 52°06' E 004°16'0 0.0
2017-Jun-21 16:00N 52°06' E 004°16'0 0.0
2017-Jun-21 15:30N 52°06' E 004°16'0 0.0
2017-Jun-21 15:00N 52°06' E 004°16'0 0.0
2017-Jun-21 14:30N 52°06' E 004°16'0 0.0
2017-Jun-21 13:30N 52°06' E 004°16'0 0.0
2017-Jun-21 13:00N 52°06' E 004°16'0 0.0
2017-Jun-21 12:30N 52°06' E 004°16'0 0.0
2017-Jun-21 12:00N 52°06' E 004°16'0 0.0
2017-Jun-21 11:30N 52°06' E 004°16'0 0.0
2017-Jun-21 11:00N 52°06' E 004°16'0 0.0
2017-Jun-21 10:30N 52°06' E 004°16'0 0.0
2017-Jun-21 10:00N 52°06' E 004°16'0 0.0
2017-Jun-21 09:30N 52°06' E 004°16'0 0.0
2017-Jun-21 09:00N 52°06' E 004°16'0 0.0
2017-Jun-21 08:30N 52°06' E 004°16'0 0.0
2017-Jun-21 08:00N 52°06' E 004°16'0 0.0
2017-Jun-21 07:30N 52°06' E 004°16'0 0.0
2017-Jun-21 07:00N 52°06' E 004°16'0 0.0
2017-Jun-21 06:30N 52°06' E 004°16'0 0.0
2017-Jun-21 06:00N 52°06' E 004°16'0 0.0
2017-Jun-21 05:30N 52°06' E 004°16'0 0.0
2017-Jun-21 05:00N 52°06' E 004°16'0 0.0
2017-Jun-21 04:30N 52°06' E 004°16'0 0.0
2017-Jun-21 04:00N 52°06' E 004°16'0 0.0
2017-Jun-21 03:30N 52°06' E 004°16'0 0.0
2017-Jun-21 03:00N 52°06' E 004°16'0 0.0
2017-Jun-21 02:30N 52°06' E 004°16'0 0.0
2017-Jun-21 02:00N 52°06' E 004°16'0 0.0
2017-Jun-21 01:30N 52°06' E 004°16'0 0.0
2017-Jun-21 01:00N 52°06' E 004°16'0 0.0
2017-Jun-21 00:30N 52°06' E 004°16'0 0.0
2017-Jun-21 00:00N 52°06' E 004°16'0 0.0
2017-Jun-20 23:30N 52°06' E 004°16'0 0.0
2017-Jun-20 23:00N 52°06' E 004°16'0 0.0
2017-Jun-20 22:30N 52°06' E 004°16'0 0.0
2017-Jun-20 22:00N 52°06' E 004°16'0 0.0
2017-Jun-20 21:30N 52°06' E 004°16'0 0.0
2017-Jun-20 21:00N 52°06' E 004°16'0 0.0
2017-Jun-20 20:30N 52°06' E 004°16'0 0.0
2017-Jun-20 20:00N 52°06' E 004°16'0 0.0
2017-Jun-20 19:30N 52°06' E 004°16'0 0.0
2017-Jun-20 19:00N 52°06' E 004°16'0 0.0
2017-Jun-20 18:30N 52°06' E 004°16'0 0.0
2017-Jun-20 18:00N 52°06' E 004°16'0 0.0
2017-Jun-20 17:30N 52°06' E 004°16'0 0.0
2017-Jun-20 17:00N 52°06' E 004°16'0 0.0
2017-Jun-20 16:30N 52°06' E 004°16'0 0.0
2017-Jun-20 16:00N 52°06' E 004°16'0 0.0
2017-Jun-20 15:30N 52°06' E 004°16'0 0.0
2017-Jun-20 15:00N 52°06' E 004°16'0 0.0
2017-Jun-20 14:30N 52°06' E 004°16'0 0.0
2017-Jun-20 13:30N 52°06' E 004°16'0 0.0
2017-Jun-20 13:00N 52°06' E 004°16'0 0.0
2017-Jun-20 12:30N 52°06' E 004°16'0 0.0
2017-Jun-20 12:00N 52°06' E 004°16'0 0.0
2017-Jun-20 11:30N 52°06' E 004°16'0 0.0
2017-Jun-20 11:00N 52°06' E 004°16'0 0.0
2017-Jun-20 10:30N 52°06' E 004°16'0 0.0
2017-Jun-20 10:00N 52°06' E 004°16'0 0.0
2017-Jun-20 09:30N 52°06' E 004°16'0 0.0
2017-Jun-20 09:00N 52°06' E 004°16'0 0.0
2017-Jun-20 08:30N 52°06' E 004°16'0 0.0
2017-Jun-20 08:00N 52°06' E 004°16'0 0.0
2017-Jun-20 07:30N 52°06' E 004°16'0 0.0
2017-Jun-20 07:00N 52°06' E 004°16'0 0.0
2017-Jun-20 06:30N 52°06' E 004°16'0 0.0
2017-Jun-20 06:00N 52°06' E 004°16'0 0.0
2017-Jun-20 05:30N 52°06' E 004°16'0 0.0
2017-Jun-20 05:00N 52°06' E 004°16'0 0.0
2017-Jun-20 04:30N 52°06' E 004°16'0 0.0
2017-Jun-20 04:00N 52°06' E 004°16'0 0.0
2017-Jun-20 03:30N 52°06' E 004°16'0 0.0
2017-Jun-20 03:00N 52°06' E 004°16'0 0.0
2017-Jun-20 02:30N 52°06' E 004°16'0 0.0
2017-Jun-20 02:00N 52°06' E 004°16'0 0.0
2017-Jun-20 01:30N 52°06' E 004°16'0 0.0
2017-Jun-20 01:00N 52°06' E 004°16'0 0.0
2017-Jun-20 00:30N 52°06' E 004°16'0 0.0
2017-Jun-20 00:00N 52°06' E 004°16'0 0.0
2017-Jun-19 23:30N 52°06' E 004°16'0 0.0
2017-Jun-19 23:00N 52°06' E 004°16'0 0.0
2017-Jun-19 22:30N 52°06' E 004°16'0 0.0
2017-Jun-19 22:00N 52°06' E 004°16'0 0.0
2017-Jun-19 21:30N 52°06' E 004°16'0 0.0
2017-Jun-19 21:00N 52°06' E 004°16'0 0.0
2017-Jun-19 20:30N 52°06' E 004°16'0 0.0
2017-Jun-19 20:00N 52°06' E 004°16'0 0.0
2017-Jun-19 19:30N 52°06' E 004°16'0 0.0
2017-Jun-19 19:00N 52°06' E 004°16'0 0.0
2017-Jun-19 18:30N 52°06' E 004°16'0 0.0
2017-Jun-19 18:00N 52°06' E 004°16'0 0.0
2017-Jun-19 17:30N 52°06' E 004°16'0 0.0
2017-Jun-19 17:00N 52°06' E 004°16'0 0.0
2017-Jun-19 16:30N 52°06' E 004°16'0 0.0
2017-Jun-19 16:00N 52°06' E 004°16'0 0.0
2017-Jun-19 15:30N 52°06' E 004°16'0 0.0
2017-Jun-19 15:00N 52°06' E 004°16'0 0.0
2017-Jun-19 14:31N 52°06' E 004°16'0 0.0
2017-Jun-19 13:30N 52°06' E 004°16'0 0.0
2017-Jun-19 13:00N 52°06' E 004°16'0 0.0
2017-Jun-19 12:30N 52°06' E 004°16'0 0.0
2017-Jun-19 12:00N 52°06' E 004°16'0 0.0
2017-Jun-19 11:30N 52°06' E 004°16'0 0.0
2017-Jun-19 11:00N 52°06' E 004°16'0 0.0
2017-Jun-19 10:30N 52°06' E 004°16'0 0.0
2017-Jun-19 10:00N 52°06' E 004°16'0 0.0
2017-Jun-19 09:30N 52°06' E 004°16'0 0.0
2017-Jun-19 09:00N 52°06' E 004°16'0 0.0
2017-Jun-19 08:30N 52°06' E 004°16'0 0.0
2017-Jun-19 08:00N 52°06' E 004°16'0 0.0
2017-Jun-19 07:30N 52°06' E 004°16'0 0.0
2017-Jun-19 07:00N 52°06' E 004°16'0 0.0
2017-Jun-19 06:30N 52°06' E 004°16'0 0.0
2017-Jun-19 06:00N 52°06' E 004°16'0 0.0
2017-Jun-19 05:30N 52°06' E 004°16'0 0.0
2017-Jun-19 05:00N 52°06' E 004°16'0 0.0
2017-Jun-19 04:30N 52°06' E 004°16'0 0.0
2017-Jun-19 04:00N 52°06' E 004°16'0 0.0
2017-Jun-19 03:30N 52°06' E 004°16'0 0.0
2017-Jun-19 03:00N 52°06' E 004°16'0 0.0
2017-Jun-19 02:30N 52°06' E 004°16'0 0.0
2017-Jun-19 02:00N 52°06' E 004°16'0 0.0
2017-Jun-19 01:30N 52°06' E 004°16'0 0.0
2017-Jun-19 01:00N 52°06' E 004°16'0 0.0
2017-Jun-19 00:30N 52°06' E 004°16'0 0.0
2017-Jun-19 00:00N 52°06' E 004°16'0 0.0
2017-Jun-18 23:30N 52°06' E 004°16'0 0.0
2017-Jun-18 23:00N 52°06' E 004°16'0 0.0
2017-Jun-18 22:30N 52°06' E 004°16'0 0.0
2017-Jun-18 22:00N 52°06' E 004°16'0 0.0
2017-Jun-18 21:30N 52°06' E 004°16'0 0.0
2017-Jun-18 21:00N 52°06' E 004°16'0 0.0
2017-Jun-18 20:30N 52°06' E 004°16'0 0.0
2017-Jun-18 20:00N 52°06' E 004°16'0 0.0
2017-Jun-18 19:30N 52°06' E 004°16'0 0.0
2017-Jun-18 19:00N 52°06' E 004°16'  

Dump ship's entire track history